Terminal Aerodrome Forecast
Issued by NWS

Home | Current Version | Previous Version | Text Only | Print | Product List | Glossary On
Versions: 1 2 3 4 5 6 7 8 9 10 11 12 13 14 15 16 17 18
000
FTUS46 KSEW 190902 AAA
TAFPAE
TAF AMD
KPAE 190902Z 1909/2006 12012KT P6SM BKN130
     FM191300 15015G25KT P6SM BKN035 OVC050
     FM191800 17020G30KT P6SM -RA OVC035
     FM192200 17022G35KT P6SM -RA OVC035
     FM200300 17022G35KT 4SM -RA OVC015
     FM200500 17012G22KT 4SM -SHRA BKN008 OVC015=

USA.gov is the U.S. government's official web portal to all federal, state and local government web resources and services.